Time,TemperatureF,DewpointF,PressureIn,WindDirection,WindDirectionDegrees,WindSpeedMPH,WindSpeedGustMPH,Humidity,HourlyPrecipIn,Conditions,Clouds,dailyrainin,SolarRadiationWatts/m^2,SoftwareType,DateUTC
2013-03-18 00:03:00,29.0,12.0,-100.00,NNW,348,5.0,9.0,48,0.00,,,0.01,0.000000,,2013-03-18 04:03:00,
2013-03-18 00:10:00,27.0,9.0,-100.00,NNE,14,5.0,12.0,46,0.00,,,0.01,0.000000,,2013-03-18 04:10:00,
2013-03-18 00:42:00,27.0,9.0,-100.00,NNE,14,5.0,12.0,46,0.00,,,0.01,0.000000,,2013-03-18 04:42:00,
2013-03-18 00:53:00,27.0,9.0,-100.00,NNE,14,5.0,12.0,46,0.00,,,0.01,0.000000,,2013-03-18 04:53:00,
2013-03-18 01:03:00,27.0,9.0,-100.00,NNE,14,5.0,12.0,46,0.00,,,0.01,0.000000,,2013-03-18 05:03:00,
2013-03-18 01:10:00,26.0,9.0,-100.00,NNE,15,6.0,11.0,48,0.00,,,0.01,0.000000,,2013-03-18 05:10:00,
2013-03-18 01:43:00,26.0,9.0,-100.00,NNE,15,6.0,11.0,48,0.00,,,0.01,0.000000,,2013-03-18 05:43:00,
2013-03-18 01:52:00,26.0,9.0,-100.00,NNE,15,6.0,11.0,48,0.00,,,0.01,0.000000,,2013-03-18 05:52:00,
2013-03-18 02:02:00,26.0,9.0,-100.00,NNE,15,6.0,11.0,48,0.00,,,0.01,0.000000,,2013-03-18 06:02:00,
2013-03-18 02:10:00,25.0,9.0,-100.00,North,2,7.0,10.0,51,0.00,,,0.01,0.000000,,2013-03-18 06:10:00,
2013-03-18 02:42:00,25.0,9.0,-100.00,North,2,7.0,10.0,51,0.00,,,0.01,0.000000,,2013-03-18 06:42:00,
2013-03-18 02:53:00,25.0,9.0,-100.00,North,2,7.0,10.0,51,0.00,,,0.01,0.000000,,2013-03-18 06:53:00,
2013-03-18 03:02:00,25.0,9.0,-100.00,North,2,7.0,10.0,51,0.00,,,0.01,0.000000,,2013-03-18 07:02:00,
2013-03-18 03:10:00,24.0,9.0,-100.00,NNE,27,5.0,12.0,52,0.00,,,0.01,0.000000,,2013-03-18 07:10:00,
2013-03-18 03:43:00,24.0,9.0,-100.00,NNE,27,5.0,12.0,52,0.00,,,0.01,0.000000,,2013-03-18 07:43:00,
2013-03-18 03:53:00,24.0,9.0,-100.00,NNE,27,5.0,12.0,52,0.00,,,0.01,0.000000,,2013-03-18 07:53:00,
2013-03-18 04:02:00,24.0,9.0,-100.00,NNE,27,5.0,12.0,52,0.00,,,0.01,0.000000,,2013-03-18 08:02:00,
2013-03-18 04:10:00,23.0,9.0,-100.00,NNE,32,8.0,11.0,54,0.00,,,0.01,0.000000,,2013-03-18 08:10:00,
2013-03-18 04:32:00,23.0,9.0,-100.00,NNE,32,8.0,11.0,54,0.00,,,0.01,0.000000,,2013-03-18 08:32:00,
2013-03-18 04:43:00,23.0,9.0,-100.00,NNE,32,8.0,11.0,54,0.00,,,0.01,0.000000,,2013-03-18 08:43:00,
2013-03-18 04:53:00,23.0,9.0,-100.00,NNE,32,8.0,11.0,54,0.00,,,0.01,0.000000,,2013-03-18 08:53:00,
2013-03-18 05:02:00,23.0,9.0,-100.00,NNE,32,8.0,11.0,54,0.00,,,0.01,0.000000,,2013-03-18 09:02:00,
2013-03-18 05:10:00,23.0,7.0,-100.00,ENE,59,6.0,11.0,50,0.00,,,0.01,0.000000,,2013-03-18 09:10:00,
2013-03-18 05:33:00,23.0,7.0,-100.00,ENE,59,6.0,11.0,50,0.00,,,0.01,0.000000,,2013-03-18 09:33:00,
2013-03-18 05:43:00,23.0,7.0,-100.00,ENE,59,6.0,11.0,50,0.00,,,0.01,0.000000,,2013-03-18 09:43:00,
2013-03-18 05:53:00,23.0,7.0,-100.00,ENE,59,6.0,11.0,50,0.00,,,0.01,0.000000,,2013-03-18 09:53:00,
2013-03-18 06:04:00,23.0,7.0,-100.00,ENE,59,6.0,11.0,50,0.00,,,0.01,0.000000,,2013-03-18 10:04:00,
2013-03-18 06:10:00,22.0,7.0,-100.00,ENE,71,6.0,11.0,51,0.00,,,0.01,0.000000,,2013-03-18 10:10:00,
2013-03-18 06:33:00,22.0,7.0,-100.00,ENE,71,6.0,11.0,51,0.00,,,0.01,0.000000,,2013-03-18 10:33:00,
2013-03-18 06:42:00,22.0,7.0,-100.00,ENE,71,6.0,11.0,51,0.00,,,0.01,0.000000,,2013-03-18 10:42:00,
2013-03-18 06:53:00,22.0,7.0,-100.00,ENE,71,6.0,11.0,51,0.00,,,0.01,0.000000,,2013-03-18 10:53:00,
2013-03-18 07:03:00,22.0,7.0,-100.00,ENE,71,6.0,11.0,51,0.00,,,0.01,0.000000,,2013-03-18 11:03:00,
2013-03-18 07:10:00,22.0,7.0,-100.00,ENE,76,8.0,12.0,51,0.00,,,0.01,1.000000,,2013-03-18 11:10:00,
2013-03-18 07:32:00,22.0,7.0,-100.00,ENE,76,8.0,12.0,51,0.00,,,0.01,1.000000,,2013-03-18 11:32:00,
2013-03-18 07:43:00,22.0,7.0,-100.00,ENE,76,8.0,12.0,51,0.00,,,0.01,1.000000,,2013-03-18 11:43:00,
2013-03-18 07:53:00,22.0,7.0,-100.00,ENE,76,8.0,12.0,51,0.00,,,0.01,1.000000,,2013-03-18 11:53:00,
2013-03-18 08:03:00,22.0,7.0,-100.00,ENE,76,8.0,12.0,51,0.00,,,0.01,1.000000,,2013-03-18 12:03:00,
2013-03-18 08:10:00,24.0,6.0,-100.00,East,87,8.0,13.0,46,0.00,,,0.01,38.000000,,2013-03-18 12:10:00,
2013-03-18 08:43:00,24.0,6.0,-100.00,East,87,8.0,13.0,46,0.00,,,0.01,38.000000,,2013-03-18 12:43:00,
2013-03-18 08:52:00,24.0,6.0,-100.00,East,87,8.0,13.0,46,0.00,,,0.01,38.000000,,2013-03-18 12:52:00,
2013-03-18 09:03:00,24.0,6.0,-100.00,East,87,8.0,13.0,46,0.00,,,0.01,38.000000,,2013-03-18 13:03:00,
2013-03-18 09:10:00,25.0,7.0,-100.00,East,85,9.0,14.0,46,0.00,,,0.01,116.000000,,2013-03-18 13:10:00,
2013-03-18 09:43:00,25.0,7.0,-100.00,East,85,9.0,14.0,46,0.00,,,0.01,116.000000,,2013-03-18 13:43:00,
2013-03-18 09:52:00,25.0,7.0,-100.00,East,85,9.0,14.0,46,0.00,,,0.01,116.000000,,2013-03-18 13:52:00,
2013-03-18 10:03:00,25.0,7.0,-100.00,East,85,9.0,14.0,46,0.00,,,0.01,116.000000,,2013-03-18 14:03:00,
2013-03-18 10:10:00,26.0,9.0,-100.00,East,97,10.0,15.0,48,0.00,,,0.01,208.000000,,2013-03-18 14:10:00,
2013-03-18 10:42:00,26.0,9.0,-100.00,East,97,10.0,15.0,48,0.00,,,0.01,208.000000,,2013-03-18 14:42:00,
2013-03-18 10:52:00,26.0,9.0,-100.00,East,97,10.0,15.0,48,0.00,,,0.01,208.000000,,2013-03-18 14:52:00,
2013-03-18 11:02:00,26.0,9.0,-100.00,East,97,10.0,15.0,48,0.00,,,0.01,208.000000,,2013-03-18 15:02:00,
2013-03-18 11:10:00,29.0,13.0,-100.00,East,101,11.0,17.0,50,0.00,,,0.01,325.000000,,2013-03-18 15:10:00,
2013-03-18 11:33:00,29.0,13.0,-100.00,East,101,11.0,17.0,50,0.00,,,0.01,325.000000,,2013-03-18 15:33:00,
2013-03-18 11:43:00,29.0,13.0,-100.00,East,101,11.0,17.0,50,0.00,,,0.01,325.000000,,2013-03-18 15:43:00,
2013-03-18 11:52:00,29.0,13.0,-100.00,East,101,11.0,17.0,50,0.00,,,0.01,325.000000,,2013-03-18 15:52:00,
2013-03-18 12:03:00,29.0,13.0,-100.00,East,101,11.0,17.0,50,0.00,,,0.01,325.000000,,2013-03-18 16:03:00,
2013-03-18 12:10:00,30.0,15.0,-100.00,ESE,113,11.0,18.0,53,0.00,,,0.01,314.000000,,2013-03-18 16:10:00,
2013-03-18 12:42:00,30.0,15.0,-100.00,ESE,113,11.0,18.0,53,0.00,,,0.01,314.000000,,2013-03-18 16:42:00,
2013-03-18 12:53:00,30.0,15.0,-100.00,ESE,113,11.0,18.0,53,0.00,,,0.01,314.000000,,2013-03-18 16:53:00,
2013-03-18 13:03:00,30.0,15.0,-100.00,ESE,113,11.0,18.0,53,0.00,,,0.01,314.000000,,2013-03-18 17:03:00,
2013-03-18 13:10:00,31.0,18.0,-100.00,East,101,13.0,19.0,58,0.00,,,0.00,213.000000,,2013-03-18 17:10:00,
2013-03-18 13:43:00,31.0,18.0,-100.00,East,101,13.0,19.0,58,0.00,,,0.00,213.000000,,2013-03-18 17:43:00,
2013-03-18 13:52:00,31.0,18.0,-100.00,East,101,13.0,19.0,58,0.00,,,0.00,213.000000,,2013-03-18 17:52:00,
2013-03-18 14:02:00,31.0,18.0,-100.00,East,101,13.0,19.0,58,0.00,,,0.00,213.000000,,2013-03-18 18:02:00,
2013-03-18 14:10:00,30.0,20.0,-100.00,ESE,110,14.0,22.0,67,0.00,,,0.00,134.000000,,2013-03-18 18:10:00,
2013-03-18 14:42:00,30.0,20.0,-100.00,ESE,110,14.0,22.0,67,0.00,,,0.00,134.000000,,2013-03-18 18:42:00,
2013-03-18 14:52:00,30.0,20.0,-100.00,ESE,110,14.0,22.0,67,0.00,,,0.00,134.000000,,2013-03-18 18:52:00,
2013-03-18 15:03:00,30.0,20.0,-100.00,ESE,110,14.0,22.0,67,0.00,,,0.00,134.000000,,2013-03-18 19:03:00,
2013-03-18 15:10:00,29.0,20.0,-100.00,ESE,109,14.0,21.0,68,0.00,,,0.00,79.000000,,2013-03-18 19:10:00,
2013-03-18 15:33:00,29.0,20.0,-100.00,ESE,109,14.0,21.0,68,0.00,,,0.00,79.000000,,2013-03-18 19:33:00,
2013-03-18 15:42:00,29.0,20.0,-100.00,ESE,109,14.0,21.0,68,0.00,,,0.00,79.000000,,2013-03-18 19:42:00,
2013-03-18 15:52:00,29.0,20.0,-100.00,ESE,109,14.0,21.0,68,0.00,,,0.00,79.000000,,2013-03-18 19:52:00,
2013-03-18 16:03:00,29.0,20.0,-100.00,ESE,109,14.0,21.0,68,0.00,,,0.00,79.000000,,2013-03-18 20:03:00,
2013-03-18 16:10:00,29.0,21.0,-100.00,East,99,11.0,19.0,71,0.00,,,0.00,37.000000,,2013-03-18 20:10:00,
2013-03-18 16:43:00,29.0,21.0,-100.00,East,99,11.0,19.0,71,0.00,,,0.00,37.000000,,2013-03-18 20:43:00,
2013-03-18 16:53:00,29.0,21.0,-100.00,East,99,11.0,19.0,71,0.00,,,0.00,37.000000,,2013-03-18 20:53:00,
2013-03-18 17:02:00,29.0,21.0,-100.00,East,99,11.0,19.0,71,0.00,,,0.00,37.000000,,2013-03-18 21:02:00,
2013-03-18 17:10:00,28.0,25.0,-100.00,East,99,11.0,20.0,87,0.00,,,0.00,19.000000,,2013-03-18 21:10:00,
2013-03-18 17:33:00,28.0,25.0,-100.00,East,99,11.0,20.0,87,0.00,,,0.00,19.000000,,2013-03-18 21:33:00,
2013-03-18 17:43:00,28.0,25.0,-100.00,East,99,11.0,20.0,87,0.00,,,0.00,19.000000,,2013-03-18 21:43:00,
2013-03-18 17:53:00,28.0,25.0,-100.00,East,99,11.0,20.0,87,0.00,,,0.00,19.000000,,2013-03-18 21:53:00,
2013-03-18 18:03:00,28.0,25.0,-100.00,East,99,11.0,20.0,87,0.00,,,0.00,19.000000,,2013-03-18 22:03:00,
2013-03-18 18:10:00,26.0,23.0,-100.00,East,99,13.0,23.0,90,0.00,,,0.00,12.000000,,2013-03-18 22:10:00,
2013-03-18 18:33:00,26.0,23.0,-100.00,East,99,13.0,23.0,90,0.00,,,0.00,12.000000,,2013-03-18 22:33:00,
2013-03-18 18:43:00,26.0,23.0,-100.00,East,99,13.0,23.0,90,0.00,,,0.00,12.000000,,2013-03-18 22:43:00,
2013-03-18 18:53:00,26.0,23.0,-100.00,East,99,13.0,23.0,90,0.00,,,0.00,12.000000,,2013-03-18 22:53:00,
2013-03-18 19:03:00,26.0,23.0,-100.00,East,99,13.0,23.0,90,0.00,,,0.00,12.000000,,2013-03-18 23:03:00,
2013-03-18 19:10:00,26.0,25.0,-100.00,East,85,10.0,20.0,94,0.00,,,0.00,5.000000,,2013-03-18 23:10:00,
2013-03-18 19:43:00,26.0,25.0,-100.00,East,85,10.0,20.0,94,0.00,,,0.00,5.000000,,2013-03-18 23:43:00,
2013-03-18 19:53:00,26.0,25.0,-100.00,East,85,10.0,20.0,94,0.00,,,0.00,5.000000,,2013-03-18 23:53:00,
2013-03-18 20:03:00,26.0,25.0,-100.00,East,85,10.0,20.0,94,0.00,,,0.00,5.000000,,2013-03-19 00:03:00,
2013-03-18 21:10:00,27.0,26.0,-100.00,East,81,11.0,18.0,95,-99.99,,,0.00,0.000000,,2013-03-19 01:10:00,
2013-03-18 21:43:00,27.0,26.0,-100.00,East,81,11.0,18.0,95,-99.99,,,0.00,0.000000,,2013-03-19 01:43:00,
2013-03-18 21:53:00,27.0,26.0,-100.00,East,81,11.0,18.0,95,-99.99,,,0.00,0.000000,,2013-03-19 01:53:00,
2013-03-18 22:03:00,27.0,26.0,-100.00,East,81,11.0,18.0,95,-99.99,,,0.00,0.000000,,2013-03-19 02:03:00,
2013-03-18 22:10:00,28.0,27.0,-100.00,East,85,12.0,21.0,96,0.00,,,0.00,0.000000,,2013-03-19 02:10:00,
2013-03-18 22:43:00,28.0,27.0,-100.00,East,85,12.0,21.0,96,0.00,,,0.00,0.000000,,2013-03-19 02:43:00,
2013-03-18 22:53:00,28.0,27.0,-100.00,East,85,12.0,21.0,96,0.00,,,0.00,0.000000,,2013-03-19 02:53:00,
2013-03-18 23:02:00,28.0,27.0,-100.00,East,85,12.0,21.0,96,0.00,,,0.00,0.000000,,2013-03-19 03:02:00,
2013-03-18 23:10:00,29.0,28.0,-100.00,East,86,12.0,20.0,96,0.00,,,0.00,0.000000,,2013-03-19 03:10:00,
2013-03-18 23:43:00,29.0,28.0,-100.00,East,86,12.0,20.0,96,0.00,,,0.00,0.000000,,2013-03-19 03:43:00,
2013-03-18 23:54:00,29.0,28.0,-100.00,East,86,12.0,20.0,96,0.00,,,0.00,0.000000,,2013-03-19 03:54:00,